Time;durP1;ratioP1;P1;durP2;ratioP2;P2;SDS_P1;SDS_P2;PMS_P1;PMS_P2;Temp;Humidity;BMP_temperature;BMP_pressure;BME280_temperature;BME280_humidity;BME280_pressure;Samples;Min_cycle;Max_cycle;Signal;HPM_P1;HPM_P2
2022/04/12 00:00:45;;;;;;;6.82;6.13;;;8.40;98.20;;;;;;5038187;28;20206;-82
2022/04/12 00:03:12;;;;;;;8.55;7.80;;;8.40;98.20;;;;;;5037886;28;20199;-81
2022/04/12 00:05:41;;;;;;;9.55;8.15;;;8.40;98.40;;;;;;5038415;28;20206;-80
2022/04/12 00:08:08;;;;;;;7.50;6.80;;;8.30;98.40;;;;;;5037565;28;20246;-80
2022/04/12 00:10:35;;;;;;;8.07;7.28;;;8.30;98.70;;;;;;5036912;28;20206;-80
2022/04/12 00:13:02;;;;;;;7.90;6.90;;;8.30;99.00;;;;;;5037067;28;20699;-80
2022/04/12 00:15:28;;;;;;;9.55;7.00;;;8.20;99.20;;;;;;5037062;28;20223;-80
2022/04/12 00:20:43;;;;;;;9.80;7.40;;;8.20;99.30;;;;;;5037003;28;20205;-80
2022/04/12 00:23:11;;;;;;;10.57;8.60;;;8.10;99.50;;;;;;5036778;28;20238;-80
2022/04/12 00:25:42;;;;;;;7.68;6.88;;;8.10;99.50;;;;;;5036456;28;20237;-80
2022/04/12 00:28:09;;;;;;;9.13;7.55;;;8.10;99.70;;;;;;5036618;28;20265;-80
2022/04/12 00:30:36;;;;;;;7.82;7.07;;;8.00;99.70;;;;;;5034675;28;20569;-80
2022/04/12 00:33:03;;;;;;;7.80;6.40;;;8.00;99.70;;;;;;5036475;28;20233;-80
2022/04/12 00:35:30;;;;;;;8.60;6.53;;;8.00;99.80;;;;;;5041414;28;20206;-80
2022/04/12 00:37:58;;;;;;;7.57;6.88;;;8.00;99.90;;;;;;5055674;28;20225;-80
2022/04/12 00:40:26;;;;;;;8.60;7.40;;;7.90;99.90;;;;;;5052135;28;20208;-80
2022/04/12 00:42:54;;;;;;;9.30;7.40;;;7.90;99.90;;;;;;5036331;28;20203;-80
2022/04/12 00:45:21;;;;;;;8.90;8.07;;;7.90;99.90;;;;;;5038302;28;20703;-80
2022/04/12 00:47:48;;;;;;;8.80;7.90;;;7.90;99.90;;;;;;5056547;28;20647;-80
2022/04/12 00:50:15;;;;;;;8.50;7.70;;;7.90;99.90;;;;;;5054377;28;20209;-80
2022/04/12 00:52:45;;;;;;;7.40;6.25;;;7.90;99.90;;;;;;5036588;28;20206;-79
2022/04/12 00:55:13;;;;;;;9.13;6.78;;;7.90;99.90;;;;;;5036671;28;20199;-80
2022/04/12 00:57:41;;;;;;;9.35;7.28;;;7.90;99.90;;;;;;5036478;28;20226;-80
2022/04/12 01:00:10;;;;;;;9.18;7.95;;;7.90;99.90;;;;;;5036094;28;20671;-80
2022/04/12 01:02:37;;;;;;;9.90;8.38;;;7.80;99.90;;;;;;5055100;28;20217;-80
2022/04/12 01:05:06;;;;;;;9.25;7.88;;;7.80;99.90;;;;;;5047912;28;20198;-80
2022/04/12 01:07:34;;;;;;;8.43;7.63;;;7.80;99.90;;;;;;5035972;28;20226;-80
2022/04/12 01:10:01;;;;;;;9.38;6.78;;;7.80;99.90;;;;;;5035539;28;20217;-80
2022/04/12 01:12:30;;;;;;;8.88;6.93;;;7.80;99.90;;;;;;5035543;28;20210;-80
2022/04/12 01:15:11;;;;;;;8.10;7.25;;;7.80;99.90;;;;;;5044407;28;20682;-80
2022/04/12 01:17:37;;;;;;;8.43;7.63;;;7.80;99.90;;;;;;5052146;28;20226;-80
2022/04/12 01:20:06;;;;;;;8.02;7.22;;;7.80;99.90;;;;;;5038615;28;20774;-80
2022/04/12 01:22:35;;;;;;;8.13;7.32;;;7.80;99.90;;;;;;5043942;28;20205;-81
2022/04/12 01:25:04;;;;;;;7.60;6.85;;;7.80;99.90;;;;;;5060596;28;20205;-80
2022/04/12 01:27:31;;;;;;;8.43;7.63;;;7.70;99.90;;;;;;5056140;28;20222;-80
2022/04/12 01:29:58;;;;;;;7.75;6.43;;;7.70;99.90;;;;;;5041081;28;20215;-80
2022/04/12 01:32:25;;;;;;;7.55;6.80;;;7.70;99.90;;;;;;5042801;28;20210;-81
2022/04/12 01:34:52;;;;;;;7.97;7.22;;;7.60;99.90;;;;;;5056861;28;20210;-81
2022/04/12 01:37:19;;;;;;;7.22;6.53;;;7.70;99.90;;;;;;5054827;28;20221;-81
2022/04/12 01:39:45;;;;;;;7.70;6.90;;;7.70;99.90;;;;;;5036785;28;20214;-82
2022/04/12 01:42:13;;;;;;;8.68;7.78;;;7.60;99.90;;;;;;5050212;28;20221;-81
2022/04/12 01:44:40;;;;;;;8.27;6.72;;;7.60;99.90;;;;;;5056239;28;20209;-81
2022/04/12 01:47:07;;;;;;;10.52;8.30;;;7.50;99.90;;;;;;5042628;28;20226;-81
2022/04/12 01:49:34;;;;;;;6.68;6.05;;;7.60;99.90;;;;;;5038052;28;20710;-81
2022/04/12 01:52:02;;;;;;;7.45;6.15;;;7.50;99.90;;;;;;5056109;28;20210;-81
2022/04/12 01:54:29;;;;;;;7.80;6.68;;;7.50;99.90;;;;;;5055733;28;20201;-81
2022/04/12 01:56:55;;;;;;;6.95;6.25;;;7.50;99.90;;;;;;5046541;28;20241;-81
2022/04/12 01:59:23;;;;;;;11.23;9.32;;;7.50;99.90;;;;;;5056543;28;20701;-81
2022/04/12 02:01:50;;;;;;;8.52;7.65;;;7.40;99.90;;;;;;5036797;28;20202;-80
2022/04/12 02:04:17;;;;;;;7.97;7.20;;;7.40;99.90;;;;;;5037698;28;20256;-81
2022/04/12 02:06:43;;;;;;;7.80;6.80;;;7.40;99.90;;;;;;5054459;28;20221;-81
2022/04/12 02:09:10;;;;;;;8.07;7.38;;;7.40;99.90;;;;;;5055286;28;20221;-82
2022/04/12 02:11:37;;;;;;;8.95;8.02;;;7.40;99.90;;;;;;5056445;28;20201;-81
2022/04/12 02:14:03;;;;;;;9.95;9.18;;;7.30;99.90;;;;;;5056540;28;20229;-80
2022/04/12 02:16:32;;;;;;;8.90;8.10;;;7.30;99.90;;;;;;5037040;28;20222;-81
2022/04/12 02:18:58;;;;;;;8.98;7.05;;;7.30;99.90;;;;;;5037513;28;20238;-80
2022/04/12 02:21:25;;;;;;;8.25;7.18;;;7.30;99.90;;;;;;5055098;28;20205;-81
2022/04/12 02:23:52;;;;;;;9.23;8.40;;;7.30;99.90;;;;;;5057500;28;20213;-81
2022/04/12 02:26:18;;;;;;;11.63;8.40;;;7.20;99.90;;;;;;5038892;28;20226;-82
2022/04/12 02:28:45;;;;;;;10.75;7.90;;;7.20;99.90;;;;;;5037621;28;20273;-81
2022/04/12 02:31:12;;;;;;;8.50;7.43;;;7.20;99.90;;;;;;5037796;28;20202;-81
2022/04/12 02:33:40;;;;;;;8.18;7.35;;;7.10;99.90;;;;;;5037406;28;20213;-81
2022/04/12 02:36:07;;;;;;;10.50;9.60;;;7.20;99.90;;;;;;5055938;28;20228;-81
2022/04/12 02:38:33;;;;;;;7.95;7.13;;;7.20;99.90;;;;;;5057067;28;20208;-80
2022/04/12 02:41:00;;;;;;;8.80;8.10;;;7.20;99.90;;;;;;5038261;28;20207;-81
2022/04/12 02:43:27;;;;;;;9.85;7.93;;;7.10;99.90;;;;;;5036652;28;20206;-82
2022/04/12 02:45:53;;;;;;;12.15;8.80;;;7.10;99.90;;;;;;5051801;28;20221;-81
2022/04/12 02:48:20;;;;;;;10.38;7.80;;;7.00;99.90;;;;;;5056741;28;20202;-81
2022/04/12 02:50:48;;;;;;;9.43;8.45;;;7.10;99.90;;;;;;5055656;28;20647;-81
2022/04/12 02:53:15;;;;;;;9.40;7.75;;;7.00;99.90;;;;;;5057072;28;20237;-81
2022/04/12 02:55:42;;;;;;;9.70;8.02;;;7.00;99.90;;;;;;5045862;28;20202;-81
2022/04/12 02:58:09;;;;;;;9.18;7.65;;;7.00;99.90;;;;;;5039649;28;20242;-81
2022/04/12 03:00:36;;;;;;;9.93;7.35;;;7.00;99.90;;;;;;5051952;28;20214;-79
2022/04/12 03:03:02;;;;;;;10.80;9.80;;;6.90;99.90;;;;;;5059770;28;20324;-80
2022/04/12 03:05:29;;;;;;;10.20;9.20;;;7.00;99.90;;;;;;5048320;28;20213;-81
2022/04/12 03:07:57;;;;;;;8.80;7.20;;;6.90;99.90;;;;;;5047467;28;20229;-80
2022/04/12 03:10:24;;;;;;;8.45;7.75;;;6.90;99.90;;;;;;5058351;28;20202;-80
2022/04/12 03:12:51;;;;;;;9.18;8.20;;;6.90;99.90;;;;;;5051869;28;20209;-80
2022/04/12 03:15:18;;;;;;;8.40;7.60;;;6.90;99.90;;;;;;5039338;28;20210;-81
2022/04/12 03:17:44;;;;;;;9.57;8.65;;;6.90;99.90;;;;;;5040631;28;20226;-80
2022/04/12 03:20:11;;;;;;;9.55;7.88;;;6.90;99.90;;;;;;5067858;28;20204;-82
2022/04/12 03:22:41;;;;;;;10.38;7.43;;;6.80;99.90;;;;;;5079604;28;20212;-80
2022/04/12 03:25:10;;;;;;;9.60;8.48;;;6.80;99.90;;;;;;5079713;28;20213;-82
2022/04/12 03:27:37;;;;;;;7.72;6.93;;;6.80;99.90;;;;;;5069978;28;20229;-81
2022/04/12 03:30:04;;;;;;;10.38;6.80;;;6.80;99.90;;;;;;5056634;28;20659;-80
2022/04/12 03:32:31;;;;;;;8.18;7.47;;;6.80;99.90;;;;;;5053674;28;20277;-81
2022/04/12 03:34:58;;;;;;;10.20;7.53;;;6.80;99.90;;;;;;5039655;28;20210;-82
2022/04/12 03:37:25;;;;;;;7.78;7.07;;;6.70;99.90;;;;;;5043432;28;20586;-80
2022/04/12 03:39:51;;;;;;;8.70;8.00;;;6.70;99.90;;;;;;5059663;28;20228;-81
2022/04/12 03:42:20;;;;;;;9.25;8.40;;;6.70;99.90;;;;;;5055613;28;20218;-81
2022/04/12 03:44:46;;;;;;;8.90;8.13;;;6.70;99.90;;;;;;5038895;28;20202;-81
2022/04/12 03:47:13;;;;;;;10.45;8.40;;;6.70;99.90;;;;;;5045279;28;20225;-81
2022/04/12 03:49:40;;;;;;;9.20;8.32;;;6.70;99.90;;;;;;5059021;28;20202;-81
2022/04/12 03:52:09;;;;;;;9.43;7.95;;;6.70;99.90;;;;;;5053634;28;20208;-81
2022/04/12 03:54:36;;;;;;;8.30;7.50;;;6.70;99.90;;;;;;5039000;28;20210;-82
2022/04/12 03:57:03;;;;;;;10.45;9.35;;;6.70;99.90;;;;;;5047416;28;20210;-81
2022/04/12 03:59:31;;;;;;;8.95;7.85;;;6.60;99.90;;;;;;5060069;28;20214;-81
2022/04/12 04:01:57;;;;;;;8.23;7.43;;;6.70;99.90;;;;;;5051934;28;20202;-81
2022/04/12 04:04:24;;;;;;;9.20;8.30;;;6.60;99.90;;;;;;5040220;28;20289;-81
2022/04/12 04:06:51;;;;;;;8.23;7.43;;;6.60;99.90;;;;;;5038796;28;20241;-82
2022/04/12 04:09:17;;;;;;;8.88;7.97;;;6.60;99.90;;;;;;5043437;28;20205;-80
2022/04/12 04:11:45;;;;;;;10.20;8.38;;;6.60;99.90;;;;;;5058210;28;20216;-81
2022/04/12 04:14:13;;;;;;;8.40;7.70;;;6.60;99.90;;;;;;5055578;28;20222;-80
2022/04/12 04:16:41;;;;;;;8.85;7.75;;;6.60;99.90;;;;;;5038938;28;20226;-81
2022/04/12 04:19:09;;;;;;;7.50;6.82;;;6.60;99.90;;;;;;5120752;22;20721;-82
2022/04/12 04:21:36;;;;;;;9.55;7.55;;;6.50;99.90;;;;;;5076923;28;20205;-84
2022/04/12 04:24:03;;;;;;;9.95;8.73;;;6.50;99.90;;;;;;5077139;28;20208;-84
2022/04/12 04:26:30;;;;;;;9.88;9.05;;;6.50;99.90;;;;;;5077182;28;20231;-83
2022/04/12 04:28:57;;;;;;;10.50;7.88;;;6.50;99.90;;;;;;5075330;28;20221;-84
2022/04/12 04:31:24;;;;;;;10.20;8.50;;;6.50;99.90;;;;;;5077189;28;20261;-83
2022/04/12 04:33:52;;;;;;;10.02;9.13;;;6.50;99.90;;;;;;5083746;28;20193;-84
2022/04/12 04:36:18;;;;;;;9.27;8.45;;;6.50;99.90;;;;;;5089422;28;20208;-84
2022/04/12 04:38:45;;;;;;;10.35;8.68;;;6.50;99.90;;;;;;5075761;28;20226;-84
2022/04/12 04:41:12;;;;;;;8.38;7.47;;;6.40;99.90;;;;;;5059165;28;20205;-84
2022/04/12 04:43:38;;;;;;;8.82;7.88;;;6.40;99.90;;;;;;5059015;28;20206;-84
2022/04/12 04:46:05;;;;;;;8.18;7.05;;;6.40;99.90;;;;;;5059609;28;20205;-84
2022/04/12 04:48:32;;;;;;;8.88;7.78;;;6.40;99.90;;;;;;5067748;28;20409;-84
2022/04/12 04:51:00;;;;;;;8.75;7.85;;;6.40;99.90;;;;;;5076655;28;20207;-83
2022/04/12 04:53:27;;;;;;;8.02;7.30;;;6.40;99.90;;;;;;5037025;28;20207;-84
2022/04/12 04:55:53;;;;;;;10.60;7.78;;;6.40;99.90;;;;;;5058923;28;20204;-84
2022/04/12 04:58:20;;;;;;;8.35;7.53;;;6.40;99.90;;;;;;5072840;28;20229;-84
2022/04/12 05:00:47;;;;;;;8.77;7.88;;;6.40;99.90;;;;;;5055724;28;20201;-83
2022/04/12 05:03:14;;;;;;;12.77;8.43;;;6.40;99.90;;;;;;5059490;28;20202;-83
2022/04/12 05:05:40;;;;;;;9.07;8.18;;;6.40;99.90;;;;;;5058077;28;20206;-84
2022/04/12 05:08:09;;;;;;;9.52;8.60;;;6.40;99.90;;;;;;5058950;28;20244;-84
2022/04/12 05:10:35;;;;;;;11.23;8.73;;;6.40;99.90;;;;;;5077318;28;20216;-83
2022/04/12 05:13:03;;;;;;;7.20;6.60;;;6.40;99.90;;;;;;5038008;28;20302;-84
2022/04/12 05:15:30;;;;;;;9.50;7.85;;;6.40;99.90;;;;;;5038082;28;20225;-84
2022/04/12 05:17:57;;;;;;;8.52;7.28;;;6.50;99.90;;;;;;5074482;28;20239;-83
2022/04/12 05:20:26;;;;;;;8.45;7.63;;;6.50;99.90;;;;;;5077472;28;20209;-84
2022/04/12 05:22:53;;;;;;;7.88;7.07;;;6.50;99.90;;;;;;5060842;28;20202;-84
2022/04/12 05:25:22;;;;;;;8.75;7.95;;;6.50;99.90;;;;;;5057642;28;20216;-84
2022/04/12 05:27:49;;;;;;;9.88;8.77;;;6.60;99.90;;;;;;5072821;28;20229;-85
2022/04/12 05:30:17;;;;;;;10.52;8.23;;;6.60;99.90;;;;;;5077351;28;20262;-84
2022/04/12 05:32:44;;;;;;;8.98;8.05;;;6.60;99.90;;;;;;5062360;28;20243;-83
2022/04/12 05:35:11;;;;;;;7.60;6.85;;;6.60;99.90;;;;;;5066205;28;20208;-84
2022/04/12 05:37:43;;;;;;;8.35;7.55;;;6.70;99.90;;;;;;5077306;28;20229;-84
2022/04/12 05:40:11;;;;;;;7.72;6.93;;;6.70;99.90;;;;;;5067440;28;20698;-82
2022/04/12 05:42:40;;;;;;;10.02;8.23;;;6.80;99.90;;;;;;5057458;28;20232;-82
2022/04/12 05:45:07;;;;;;;9.27;8.38;;;6.80;99.90;;;;;;5064854;28;20204;-82
2022/04/12 05:47:44;;;;;;;8.80;7.95;;;6.90;99.90;;;;;;5077748;28;20228;-83
2022/04/12 05:50:13;;;;;;;10.48;7.85;;;6.90;99.90;;;;;;5069607;28;20201;-85
2022/04/12 05:52:39;;;;;;;9.38;8.57;;;7.00;99.90;;;;;;5063894;28;20201;-85
2022/04/12 05:55:08;;;;;;;9.52;8.73;;;7.10;99.90;;;;;;5068612;28;20193;-85
2022/04/12 05:57:37;;;;;;;8.00;7.35;;;7.20;99.90;;;;;;5060935;28;20223;-85
2022/04/12 06:00:07;;;;;;;8.73;7.93;;;7.30;99.90;;;;;;5077346;28;20200;-85
2022/04/12 06:02:34;;;;;;;7.70;6.97;;;7.30;99.90;;;;;;5073102;28;20209;-84
2022/04/12 06:05:01;;;;;;;8.65;7.47;;;7.40;99.90;;;;;;5057779;28;20288;-84
2022/04/12 06:07:31;;;;;;;11.13;7.68;;;7.60;99.90;;;;;;5057847;28;21896;-84
2022/04/12 06:09:59;;;;;;;7.75;7.00;;;7.60;99.90;;;;;;5077269;28;20205;-84
2022/04/12 06:12:26;;;;;;;7.90;7.10;;;7.70;99.90;;;;;;5074806;28;20640;-86
2022/04/12 06:14:53;;;;;;;6.88;6.07;;;7.80;99.90;;;;;;5058163;28;20690;-85
2022/04/12 06:17:21;;;;;;;8.82;7.20;;;7.90;99.90;;;;;;5056942;28;20205;-85
2022/04/12 06:19:47;;;;;;;8.60;7.72;;;8.00;99.90;;;;;;5077079;28;20207;-86
2022/04/12 06:22:14;;;;;;;9.73;8.48;;;8.20;99.90;;;;;;5061195;28;20403;-85
2022/04/12 06:24:42;;;;;;;9.95;8.13;;;8.20;99.90;;;;;;5059178;28;20255;-85
2022/04/12 06:27:09;;;;;;;7.45;6.45;;;8.30;99.90;;;;;;5055987;28;20702;-85
2022/04/12 06:29:36;;;;;;;8.23;7.53;;;8.40;99.90;;;;;;5056829;28;20217;-85
2022/04/12 06:32:03;;;;;;;8.88;8.02;;;8.50;99.90;;;;;;5057325;28;20204;-84
2022/04/12 06:34:31;;;;;;;9.57;7.90;;;8.60;99.90;;;;;;5057883;28;20207;-85
2022/04/12 06:36:57;;;;;;;7.75;6.50;;;8.60;99.90;;;;;;5058408;28;20290;-85
2022/04/12 06:39:25;;;;;;;7.28;6.10;;;8.70;99.90;;;;;;5060568;28;20219;-85
2022/04/12 06:41:52;;;;;;;8.43;7.32;;;8.80;99.90;;;;;;5061380;28;20288;-86
2022/04/12 06:44:25;;;;;;;8.50;7.60;;;8.90;99.90;;;;;;5061402;28;20210;-86
2022/04/12 06:56:34;;;;;;;8.23;7.43;;;9.40;99.90;;;;;;5061132;28;20256;-85
2022/04/12 06:59:00;;;;;;;7.80;6.90;;;9.50;99.90;;;;;;5062202;28;20708;-83
2022/04/12 07:01:27;;;;;;;7.70;6.97;;;9.70;99.90;;;;;;5060005;28;20207;-84
2022/04/12 07:03:54;;;;;;;7.13;6.43;;;9.70;99.90;;;;;;5063788;28;20669;-85
2022/04/12 07:06:21;;;;;;;12.60;6.87;;;9.90;99.50;;;;;;5062888;28;20529;-85
2022/04/12 07:08:48;;;;;;;7.90;6.73;;;10.00;99.00;;;;;;5065577;28;20554;-86
2022/04/12 07:11:14;;;;;;;7.53;6.83;;;10.20;98.70;;;;;;5082312;28;20445;-87
2022/04/12 07:13:42;;;;;;;9.95;6.65;;;10.30;98.30;;;;;;5082885;28;20454;-85
2022/04/12 07:16:09;;;;;;;8.57;7.67;;;10.50;98.40;;;;;;5082002;28;20544;-85
2022/04/12 07:18:37;;;;;;;8.03;7.10;;;10.70;98.20;;;;;;5062176;28;20490;-83
2022/04/12 07:21:04;;;;;;;8.27;7.43;;;10.80;98.30;;;;;;5056300;28;20870;-85
2022/04/12 07:23:31;;;;;;;9.03;8.13;;;10.90;98.30;;;;;;5077745;28;20450;-86
2022/04/12 07:25:58;;;;;;;7.20;6.50;;;11.10;98.00;;;;;;5064084;28;20473;-84
2022/04/12 07:28:29;;;;;;;6.60;5.93;;;11.30;96.40;;;;;;5067064;28;20486;-86
2022/04/12 07:30:58;;;;;;;8.83;7.20;;;11.40;95.60;;;;;;5064883;28;20451;-85
2022/04/12 07:33:25;;;;;;;7.27;6.53;;;11.50;94.80;;;;;;5083918;28;20508;-84
2022/04/12 07:35:52;;;;;;;8.10;7.03;;;11.60;94.40;;;;;;5082599;28;20462;-84
2022/04/12 07:38:19;;;;;;;7.00;6.30;;;11.60;94.60;;;;;;5080054;28;20463;-83
2022/04/12 07:47:01;;;;;;;9.27;8.10;;;11.80;95.70;;;;;;5038029;28;20977;-85
2022/04/12 07:49:34;;;;;;;9.57;6.63;;;12.00;95.10;;;;;;5047365;28;20579;-86
2022/04/12 07:52:01;;;;;;;9.70;8.27;;;12.10;94.50;;;;;;5061394;28;20445;-87
2022/04/12 07:54:28;;;;;;;15.53;8.60;;;12.20;94.20;;;;;;5068411;28;20446;-85
2022/04/12 07:56:59;;;;;;;9.27;8.47;;;12.30;94.20;;;;;;5070033;28;20443;-85
2022/04/12 08:03:07;;;;;;;7.97;7.27;;;12.60;93.70;;;;;;5056487;28;20452;-87
2022/04/12 08:31:48;;;;;;;5.20;4.80;;;14.20;90.60;;;;;;5078966;28;20971;-80
2022/04/12 08:34:14;;;;;;;7.53;6.10;;;14.50;88.70;;;;;;5066944;28;20956;-81
2022/04/12 08:36:41;;;;;;;7.10;6.50;;;14.60;88.30;;;;;;5073030;28;20522;-85
2022/04/12 08:39:08;;;;;;;6.70;6.20;;;14.70;87.20;;;;;;5074616;28;20469;-84
2022/04/12 08:41:37;;;;;;;7.47;6.27;;;14.80;87.90;;;;;;5061697;28;20440;-86
2022/04/12 08:44:07;;;;;;;7.00;5.80;;;15.00;87.40;;;;;;5071187;28;20440;-84
2022/04/12 08:46:36;;;;;;;5.40;4.90;;;15.10;87.30;;;;;;5084085;28;20447;-84
2022/04/12 08:49:04;;;;;;;6.40;5.33;;;15.30;85.80;;;;;;5083276;28;20885;-85
2022/04/12 08:51:31;;;;;;;6.40;5.00;;;15.50;84.60;;;;;;5077052;28;20455;-84
2022/04/12 08:53:59;;;;;;;6.40;5.90;;;15.60;82.70;;;;;;5061849;28;20452;-85
2022/04/12 08:56:28;;;;;;;6.77;5.33;;;15.70;83.20;;;;;;5064428;28;20450;-85
2022/04/12 08:58:57;;;;;;;7.20;6.60;;;15.90;84.40;;;;;;5080666;28;20464;-84
2022/04/12 09:01:25;;;;;;;5.33;4.83;;;16.10;86.20;;;;;;5080066;28;20495;-84
2022/04/12 09:03:52;;;;;;;5.90;4.93;;;16.30;83.80;;;;;;5065682;28;20526;-84
2022/04/12 09:06:20;;;;;;;5.00;4.50;;;16.50;82.40;;;;;;5064752;28;20451;-83
2022/04/12 09:08:47;;;;;;;4.40;4.00;;;16.70;83.40;;;;;;5082358;28;20528;-84
2022/04/12 09:11:15;;;;;;;5.00;4.70;;;16.80;82.10;;;;;;5066989;28;20446;-84
2022/04/12 09:13:59;;;;;;;5.80;5.20;;;17.00;81.50;;;;;;5077632;28;20465;-81
2022/04/12 09:16:28;;;;;;;6.03;5.13;;;17.10;78.90;;;;;;5073076;28;20450;-82
2022/04/12 09:18:56;;;;;;;4.70;4.30;;;17.20;79.40;;;;;;5059703;28;20477;-81
2022/04/12 09:21:25;;;;;;;7.37;4.73;;;17.20;79.20;;;;;;5059053;28;20839;-82
2022/04/12 09:23:54;;;;;;;4.33;3.93;;;17.20;77.90;;;;;;5075021;28;20547;-86
2022/04/12 09:26:26;;;;;;;5.10;4.60;;;17.20;76.60;;;;;;5082821;28;20450;-85
2022/04/12 09:28:54;;;;;;;4.13;3.73;;;17.30;77.20;;;;;;5078543;28;20485;-85
2022/04/12 09:31:22;;;;;;;4.97;4.47;;;17.30;74.00;;;;;;5080489;28;20449;-85
2022/04/12 09:33:51;;;;;;;4.93;3.90;;;17.40;74.60;;;;;;5081456;28;20448;-84
2022/04/12 09:36:18;;;;;;;5.27;4.50;;;17.50;73.30;;;;;;5080131;28;20461;-84
2022/04/12 09:38:47;;;;;;;5.57;4.03;;;17.50;72.80;;;;;;5061285;28;20467;-83
2022/04/12 09:41:20;;;;;;;6.57;3.70;;;17.60;73.90;;;;;;5058700;28;20461;-86
2022/04/12 09:43:54;;;;;;;3.90;3.50;;;17.70;72.80;;;;;;5037937;28;20463;-87
2022/04/12 09:46:22;;;;;;;6.17;4.00;;;17.90;71.50;;;;;;5069207;28;20536;-86
2022/04/12 09:48:52;;;;;;;4.93;3.50;;;18.00;70.60;;;;;;5070275;28;20486;-84
2022/04/12 09:51:21;;;;;;;4.80;3.17;;;18.20;69.40;;;;;;5057994;28;21043;-82
2022/04/12 09:53:48;;;;;;;3.73;3.43;;;18.20;68.40;;;;;;5058261;28;20444;-80
2022/04/12 09:56:17;;;;;;;5.20;3.87;;;18.30;69.80;;;;;;5059206;28;20486;-81
2022/04/12 09:58:46;;;;;;;4.10;3.73;;;18.50;74.10;;;;;;5060168;28;20467;-86
2022/04/12 10:01:14;;;;;;;3.77;3.47;;;18.80;73.50;;;;;;5047698;28;20452;-84
2022/04/12 10:03:44;;;;;;;4.70;4.40;;;19.10;72.70;;;;;;5057401;28;20525;-85
2022/04/12 10:06:14;;;;;;;5.20;3.80;;;19.40;71.40;;;;;;5063546;28;20448;-86
2022/04/12 10:08:41;;;;;;;5.43;4.67;;;19.60;71.90;;;;;;5079724;28;20996;-85
2022/04/12 10:11:08;;;;;;;4.10;3.70;;;19.90;70.70;;;;;;5077997;28;20457;-86
2022/04/12 10:13:36;;;;;;;5.00;4.60;;;20.10;71.20;;;;;;5077346;28;20451;-85
2022/04/12 10:16:03;;;;;;;5.80;5.30;;;20.40;70.20;;;;;;5067594;28;20463;-83
2022/04/12 10:18:29;;;;;;;4.47;4.07;;;20.60;67.50;;;;;;5131431;22;20499;-81
2022/04/12 10:20:58;;;;;;;3.90;3.60;;;20.60;64.90;;;;;;5075883;28;20940;-81
2022/04/12 10:23:29;;;;;;;4.30;3.97;;;20.40;62.90;;;;;;5077597;28;20462;-81
2022/04/12 10:25:58;;;;;;;5.53;5.00;;;20.40;66.40;;;;;;5076873;28;20478;-80
2022/04/12 10:28:26;;;;;;;5.97;5.37;;;20.50;67.50;;;;;;5077801;28;20487;-80
2022/04/12 10:31:03;;;;;;;4.20;3.80;;;20.60;66.20;;;;;;5063484;28;20452;-79
2022/04/12 10:33:30;;;;;;;5.17;4.43;;;20.70;66.00;;;;;;5056343;28;20505;-80
2022/04/12 10:36:02;;;;;;;4.40;3.67;;;20.90;66.10;;;;;;5045801;28;20460;-81
2022/04/12 10:38:40;;;;;;;7.20;3.87;;;21.10;65.40;;;;;;5035278;28;20464;-80
2022/04/12 10:41:24;;;;;;;3.37;3.10;;;21.10;61.40;;;;;;5051022;28;20453;-80
2022/04/12 10:43:56;;;;;;;4.50;4.10;;;21.20;62.50;;;;;;5051214;28;20531;-81
2022/04/12 10:46:23;;;;;;;3.97;3.60;;;21.30;63.00;;;;;;5037323;28;20808;-80
2022/04/12 10:48:55;;;;;;;3.60;3.30;;;21.50;60.20;;;;;;5047021;28;20492;-80
2022/04/12 10:51:37;;;;;;;4.43;3.77;;;21.70;61.70;;;;;;5054856;28;20500;-80
2022/04/12 10:54:05;;;;;;;4.60;4.00;;;21.90;61.00;;;;;;5043285;28;20454;-80
2022/04/12 10:56:32;;;;;;;4.40;4.00;;;22.20;59.00;;;;;;5036835;28;20462;-80
2022/04/12 10:58:59;;;;;;;4.80;4.33;;;22.40;60.30;;;;;;5051818;28;20863;-83
2022/04/12 11:01:31;;;;;;;3.33;3.03;;;22.60;56.10;;;;;;5057369;28;20464;-82
2022/04/12 11:04:00;;;;;;;3.93;3.60;;;22.90;56.70;;;;;;5058035;28;20456;-84
2022/04/12 11:06:28;;;;;;;5.07;3.73;;;23.20;56.80;;;;;;5057556;28;20934;-81
2022/04/12 11:08:56;;;;;;;4.37;3.97;;;23.90;56.00;;;;;;5046390;28;20858;-81
2022/04/12 11:11:36;;;;;;;4.37;3.03;;;24.50;55.40;;;;;;5039732;28;20456;-82
2022/04/12 11:14:22;;;;;;;6.07;3.43;;;25.40;55.90;;;;;;5054469;28;20484;-83
2022/04/12 11:16:50;;;;;;;4.10;3.40;;;26.10;51.80;;;;;;5048957;28;20449;-83
2022/04/12 11:19:22;;;;;;;5.10;3.17;;;26.60;49.10;;;;;;5062590;28;20470;-83
2022/04/12 11:22:03;;;;;;;3.50;3.20;;;26.70;47.10;;;;;;5065241;28;20509;-83
2022/04/12 11:24:31;;;;;;;4.30;3.90;;;27.00;48.50;;;;;;5048374;28;20448;-83
2022/04/12 11:27:04;;;;;;;3.57;3.27;;;26.90;46.60;;;;;;5048137;28;20487;-83
2022/04/12 11:29:32;;;;;;;3.60;3.30;;;26.90;46.50;;;;;;5049933;28;20485;-82
2022/04/12 11:31:59;;;;;;;3.40;3.10;;;27.00;45.90;;;;;;5065168;28;20461;-82
2022/04/12 11:34:28;;;;;;;2.83;2.63;;;27.20;45.30;;;;;;5058788;28;20450;-83
2022/04/12 11:36:56;;;;;;;3.33;2.60;;;27.00;43.00;;;;;;5060223;28;20454;-83
2022/04/12 11:39:25;;;;;;;3.50;2.63;;;27.00;43.60;;;;;;5061231;28;20468;-83
2022/04/12 11:41:56;;;;;;;3.97;3.67;;;27.10;45.10;;;;;;5065829;28;20452;-82
2022/04/12 11:44:24;;;;;;;3.40;3.00;;;27.20;43.20;;;;;;5065594;28;20451;-82
2022/04/12 11:46:56;;;;;;;6.57;3.00;;;27.20;43.10;;;;;;5065877;28;20466;-82
2022/04/12 11:49:28;;;;;;;2.60;2.40;;;27.20;42.60;;;;;;5067772;28;20588;-82
2022/04/12 11:51:55;;;;;;;2.53;2.33;;;27.00;42.30;;;;;;5066166;28;20449;-82
2022/04/12 11:54:24;;;;;;;3.70;2.83;;;26.60;42.00;;;;;;5065845;28;20449;-81
2022/04/12 11:57:02;;;;;;;3.10;2.90;;;26.60;43.20;;;;;;5064346;28;20460;-82
2022/04/12 11:59:33;;;;;;;2.60;2.40;;;26.30;42.00;;;;;;5064848;28;20469;-82
2022/04/12 12:02:02;;;;;;;5.10;3.80;;;26.10;43.20;;;;;;5066069;28;20457;-82
2022/04/12 12:04:30;;;;;;;2.30;2.10;;;26.10;43.40;;;;;;5067554;28;20457;-82
2022/04/12 12:06:59;;;;;;;2.60;2.40;;;26.00;43.20;;;;;;5066523;28;20450;-83
2022/04/12 12:09:26;;;;;;;2.63;2.27;;;26.00;44.10;;;;;;5059598;28;20496;-81
2022/04/12 12:11:53;;;;;;;2.80;2.57;;;26.00;44.00;;;;;;5059877;28;20492;-82
2022/04/12 12:14:21;;;;;;;2.63;2.40;;;26.20;43.60;;;;;;5065872;28;20455;-82
2022/04/12 12:17:05;;;;;;;2.20;2.03;;;26.60;43.90;;;;;;5059883;28;20452;-82
2022/04/12 12:19:33;;;;;;;3.53;3.00;;;27.10;44.70;;;;;;5059995;28;20475;-82
2022/04/12 12:22:02;;;;;;;3.10;2.57;;;27.60;44.50;;;;;;5060256;28;20454;-82
2022/04/12 12:24:29;;;;;;;3.67;2.50;;;28.00;41.90;;;;;;5060432;28;20478;-82
2022/04/12 12:26:56;;;;;;;5.47;3.23;;;28.40;41.70;;;;;;5059651;28;20495;-82
2022/04/12 12:29:23;;;;;;;2.60;2.00;;;28.60;39.70;;;;;;5059333;28;20515;-83
2022/04/12 12:31:49;;;;;;;2.97;2.60;;;28.80;40.80;;;;;;5058650;28;20813;-83
2022/04/12 12:34:31;;;;;;;3.50;1.90;;;28.80;40.40;;;;;;5064314;28;20475;-83
2022/04/12 12:36:59;;;;;;;13.80;2.57;;;28.60;40.00;;;;;;5067191;28;20458;-82
2022/04/12 12:39:28;;;;;;;2.53;2.37;;;28.50;39.10;;;;;;5067880;28;21077;-82
2022/04/12 12:41:58;;;;;;;2.27;2.07;;;28.20;39.80;;;;;;5067297;28;20445;-83
2022/04/12 12:44:26;;;;;;;2.97;2.77;;;28.10;40.20;;;;;;5067941;28;20964;-82
2022/04/12 12:46:59;;;;;;;2.50;2.30;;;28.00;41.10;;;;;;5067596;28;20452;-83
2022/04/12 12:49:37;;;;;;;1.90;1.80;;;27.70;41.50;;;;;;5068277;28;20468;-82
2022/04/12 12:52:05;;;;;;;2.60;2.40;;;27.60;41.70;;;;;;5067729;28;20451;-83
2022/04/12 12:54:31;;;;;;;2.53;2.27;;;27.60;42.30;;;;;;5065802;28;20446;-82
2022/04/12 12:56:58;;;;;;;3.23;2.10;;;27.70;41.50;;;;;;5065306;28;20454;-83
2022/04/12 12:59:29;;;;;;;2.37;1.83;;;27.50;41.20;;;;;;5064288;28;20498;-82
2022/04/12 13:01:57;;;;;;;3.40;2.77;;;27.30;40.30;;;;;;5059683;28;20455;-82
2022/04/12 13:04:25;;;;;;;1.80;1.70;;;27.00;41.20;;;;;;5060687;28;20463;-82
2022/04/12 13:07:05;;;;;;;2.67;2.10;;;26.90;41.60;;;;;;5059709;28;20960;-82
2022/04/12 13:09:33;;;;;;;3.30;1.70;;;26.80;41.70;;;;;;5059236;28;20862;-81
2022/04/12 13:12:00;;;;;;;2.10;2.00;;;26.70;41.30;;;;;;5058880;28;20454;-82
2022/04/12 13:14:27;;;;;;;2.70;2.50;;;26.70;42.20;;;;;;5059245;28;20471;-82
2022/04/12 13:16:54;;;;;;;2.93;2.00;;;26.80;41.30;;;;;;5058621;28;20831;-82
2022/04/12 13:19:28;;;;;;;2.60;2.00;;;26.90;41.70;;;;;;5059112;28;20850;-82
2022/04/12 13:21:55;;;;;;;2.20;1.93;;;27.40;43.10;;;;;;5059318;28;20465;-82
2022/04/12 13:24:23;;;;;;;2.90;1.57;;;27.60;40.60;;;;;;5059256;28;20495;-82
2022/04/12 13:26:50;;;;;;;2.63;1.47;;;27.70;40.90;;;;;;5059417;28;20825;-82
2022/04/12 13:29:17;;;;;;;1.80;1.70;;;27.60;39.80;;;;;;5059482;28;20499;-82
2022/04/12 13:31:44;;;;;;;2.37;1.80;;;27.80;40.30;;;;;;5059042;28;20552;-82
2022/04/12 13:34:11;;;;;;;4.30;1.87;;;28.00;40.30;;;;;;5050964;28;20452;-82
2022/04/12 13:36:38;;;;;;;1.97;1.53;;;28.00;38.50;;;;;;5053501;28;20441;-82
2022/04/12 13:39:08;;;;;;;1.90;1.43;;;28.10;40.10;;;;;;5056148;28;20506;-82
2022/04/12 13:41:37;;;;;;;1.60;1.50;;;28.20;38.30;;;;;;5041010;28;20992;-81
2022/04/12 13:44:04;;;;;;;2.03;1.60;;;28.40;38.00;;;;;;5048520;28;20485;-81